Cactus Flats, South Dakota
Current Conditions -  °F | °C
As of 6:55 PM on Friday 24 Oct 2014 (Local Time) from KPHP Reporting Station
Clear Clear  
Wind Chill: 58°   Ceiling: Unl
Heat Index: 58°   Visibility: 10mi
Dew Point: 39°   Wind: 13mph
Humidity: 49%   Direction: 360°N
Pressure: 30.02"   Gusts: NA
Location:  44.0813°N, 102.067°W
Report Text: KPHP 250055Z AUTO 36011KT 10SM CLR 14/04 A3002 RMK AO2 SLP168 T01440039
Loading
Personal Weather Stations






























Interactive Weather Map
Tropical Storm Tracking
New forecast layout! Learn more

10-Day Weather Forecast

Advertisements
Track Severe Weather on mobile